Pagrindinis puslapis
METAR-TAF:

METAR-TAF

Oro uostai :

Basra, Irakas

platuma: 30-32-56N, ilguma: 47-39-45E, Aukštis: 1 m

Dabartinis oras

Ataskaita buvo paskelbta 22 minutes, ne 05:00 UTC
Vėjas 6 kt iš Rytų/Šiaurės Rytų
Temperatūra 15°C
Drėgmė 88%
Slėgis 1015 hPa
Matomumas: 4500 m
Mažai debesys ne aukštis 4000 ft
Su prošvaistėmis ne aukštis 10000 ft
rūkana

METAR: ORMM 300500Z 07006KT 4500 BR FEW040 BKN100 15/13 Q1015 NOSIG

Laikas: 08:22 (05:22 UTC)

Prognozė

Ataskaita buvo paskelbta 13 valandos ir 22 minutes, ne 16:00 UTC
Prognozė galioja nuo 29 metu 18 UTC su 30 metu 18 UTC
Vėjas 24 kt iš Rytų/Pietryčių
Išsisklaidę debesys ne aukštis 10000 ft
Tapsmas
nuo 29 metu 18 UTC su 30 metu 21 UTC
Vėjas 10 kt iš Rytų
Matomumas: 8000 m
Tapsmas
nuo 30 metu 02 UTC su 30 metu 05 UTC
Išsisklaidę debesys ne aukštis 4000 ft
Su prošvaistėmis ne aukštis 9000 ft
Laikinai
nuo 30 metu 03 UTC su 30 metu 12 UTC
Matomumas: 5000 m
lietus

TAF: ORMM 291600Z 2918/3018 11024KT FEW 040 SCT100 BECMG 2918/3021 10010KT 8000 BECMG 3002/3005 SCT040 BKN090 TEMPO 3003/3012 5000 RA

Orai ataskaitas ir orų prognozės (METAR, TAF).

turimą stotys yra geltonos ir raudonos taškus žemėlapyje.

Perkelti pele per norėdami pamatyti stoties vardą.

Tada spustelėkite, norėdami matyti oro stebėjimo ir prognozės.

Norėdami pakeisti žemėlapį: spustelėkite ant žalios mygtukų su juodo kryžiaus žemyn,; žalią mygtuką su brūkšneliu, jei norite nutolinti; arba žalių rodyklių gretimoms žemėlapius.


METAR-TAF: